Time;durP1;ratioP1;P1;durP2;ratioP2;P2;SDS_P1;SDS_P2;PMS_P1;PMS_P2;Temp;Humidity;BMP_temperature;BMP_pressure;BME280_temperature;BME280_humidity;BME280_pressure;Samples;Min_cycle;Max_cycle;Signal;HPM_P1;HPM_P2
2021/07/06 00:02:17;;;;;;;9.23;1.80;;;17.80;99.90;;;;;;5044995;28;20022;-69
2021/07/06 00:04:43;;;;;;;3.97;2.25;;;17.80;99.90;;;;;;5044646;28;20026;-68
2021/07/06 00:07:08;;;;;;;4.90;2.20;;;17.80;99.90;;;;;;5044637;28;20026;-69
2021/07/06 00:09:34;;;;;;;4.28;2.13;;;17.80;99.90;;;;;;5044831;28;20076;-69
2021/07/06 00:11:59;;;;;;;5.13;1.92;;;17.80;99.90;;;;;;5045259;28;20048;-69
2021/07/06 00:14:25;;;;;;;4.78;2.30;;;17.80;99.90;;;;;;5044662;28;20088;-68
2021/07/06 00:16:51;;;;;;;2.88;1.77;;;17.80;99.90;;;;;;5045132;28;20033;-68
2021/07/06 00:19:16;;;;;;;4.93;2.35;;;17.80;99.90;;;;;;5044731;28;20026;-70
2021/07/06 00:21:42;;;;;;;2.17;1.60;;;17.80;99.90;;;;;;5044361;28;20025;-69
2021/07/06 00:24:08;;;;;;;6.05;2.38;;;17.80;99.90;;;;;;5044907;28;20429;-70
2021/07/06 00:26:33;;;;;;;4.60;2.17;;;17.80;99.90;;;;;;5044695;28;20076;-71
2021/07/06 00:28:59;;;;;;;3.08;1.60;;;17.80;99.90;;;;;;5044470;28;20037;-69
2021/07/06 00:31:24;;;;;;;2.30;1.52;;;17.80;99.90;;;;;;5044722;28;20048;-69
2021/07/06 00:33:52;;;;;;;3.15;2.28;;;17.80;99.90;;;;;;5044412;28;20044;-70
2021/07/06 00:36:17;;;;;;;8.40;2.03;;;17.80;99.90;;;;;;5044253;28;20085;-70
2021/07/06 00:38:43;;;;;;;3.53;2.00;;;17.80;99.90;;;;;;5044512;28;20025;-69
2021/07/06 00:41:09;;;;;;;5.72;2.15;;;17.80;99.90;;;;;;5044628;28;20029;-68
2021/07/06 00:43:36;;;;;;;4.35;1.75;;;17.80;99.90;;;;;;5044437;28;20052;-67
2021/07/06 00:46:04;;;;;;;4.97;1.88;;;17.80;99.90;;;;;;5044401;28;20044;-68
2021/07/06 00:48:30;;;;;;;2.33;1.50;;;17.80;99.90;;;;;;5044496;28;20033;-68
2021/07/06 00:50:56;;;;;;;2.83;1.73;;;17.80;99.90;;;;;;5044310;28;20037;-68
2021/07/06 00:53:22;;;;;;;4.68;2.03;;;17.80;99.90;;;;;;5044411;28;20025;-69
2021/07/06 00:55:51;;;;;;;2.72;1.65;;;17.80;99.90;;;;;;5043811;28;20060;-67
2021/07/06 00:58:17;;;;;;;1.85;1.42;;;17.80;99.90;;;;;;5044103;28;20021;-68
2021/07/06 01:00:44;;;;;;;4.72;2.10;;;17.70;99.90;;;;;;5044473;28;20031;-69
2021/07/06 01:03:10;;;;;;;3.85;1.70;;;17.70;99.90;;;;;;5044192;28;20506;-68
2021/07/06 01:05:43;;;;;;;3.03;1.63;;;17.70;99.90;;;;;;5044203;28;20125;-68
2021/07/06 01:08:09;;;;;;;18.55;1.70;;;17.70;99.90;;;;;;5044234;28;20022;-69
2021/07/06 01:10:36;;;;;;;4.25;2.03;;;17.70;99.90;;;;;;5042933;28;20025;-69
2021/07/06 01:13:04;;;;;;;2.53;1.60;;;17.70;99.90;;;;;;5043856;28;20037;-70
2021/07/06 01:15:33;;;;;;;4.78;1.77;;;17.70;99.90;;;;;;5045244;28;20112;-73
2021/07/06 01:18:02;;;;;;;2.53;1.65;;;17.60;99.90;;;;;;5048205;28;20045;-70
2021/07/06 01:20:28;;;;;;;2.17;1.67;;;17.70;99.90;;;;;;5048218;28;20089;-69
2021/07/06 01:22:54;;;;;;;3.50;2.10;;;17.60;99.90;;;;;;5048482;28;20025;-71
2021/07/06 01:25:20;;;;;;;2.20;1.55;;;17.70;99.90;;;;;;5047571;28;20099;-69
2021/07/06 01:27:47;;;;;;;3.08;2.00;;;17.60;99.90;;;;;;5047841;28;20026;-71
2021/07/06 01:30:16;;;;;;;4.00;2.22;;;17.60;99.90;;;;;;5047761;28;20022;-69
2021/07/06 01:32:48;;;;;;;2.90;1.60;;;17.60;99.90;;;;;;5047705;28;20036;-70
2021/07/06 01:35:15;;;;;;;2.72;1.80;;;17.60;99.90;;;;;;5048227;28;20025;-69
2021/07/06 01:37:47;;;;;;;3.70;1.90;;;17.60;99.90;;;;;;5047593;28;20021;-69
2021/07/06 01:40:15;;;;;;;3.72;1.92;;;17.60;99.90;;;;;;5047406;28;20029;-69
2021/07/06 01:42:42;;;;;;;4.95;2.53;;;17.60;99.90;;;;;;5047787;28;20021;-71
2021/07/06 01:45:11;;;;;;;2.92;1.85;;;17.60;99.90;;;;;;5047131;28;20045;-71
2021/07/06 01:47:45;;;;;;;7.95;1.60;;;17.60;99.90;;;;;;5047608;28;20030;-70
2021/07/06 01:50:20;;;;;;;4.07;2.28;;;17.60;99.90;;;;;;5046375;28;20036;-70
2021/07/06 01:52:49;;;;;;;2.47;1.70;;;17.60;99.90;;;;;;5047615;28;20033;-69
2021/07/06 01:55:17;;;;;;;3.38;1.92;;;17.60;99.90;;;;;;5046976;28;20409;-70
2021/07/06 01:57:43;;;;;;;5.05;1.65;;;17.60;99.90;;;;;;5047293;28;20030;-71
2021/07/06 02:00:12;;;;;;;4.20;1.65;;;17.60;99.90;;;;;;5047056;28;20061;-69
2021/07/06 02:02:38;;;;;;;3.03;2.10;;;17.60;99.90;;;;;;5047425;28;20064;-69
2021/07/06 02:05:25;;;;;;;8.80;1.50;;;17.60;99.90;;;;;;5047408;28;20037;-70
2021/07/06 02:07:51;;;;;;;2.65;1.92;;;17.60;99.90;;;;;;5047207;28;20025;-69
2021/07/06 02:10:18;;;;;;;3.20;1.65;;;17.60;99.90;;;;;;5062683;28;20075;-70
2021/07/06 02:12:44;;;;;;;2.63;2.00;;;17.60;99.90;;;;;;5046837;28;20075;-72
2021/07/06 02:15:13;;;;;;;6.55;2.65;;;17.60;99.90;;;;;;5046793;28;20069;-71
2021/07/06 02:17:39;;;;;;;5.60;2.17;;;17.60;99.90;;;;;;5047111;28;20484;-71
2021/07/06 02:20:08;;;;;;;4.82;2.63;;;17.60;99.90;;;;;;5046594;28;20138;-70
2021/07/06 02:22:38;;;;;;;3.90;1.77;;;17.70;99.90;;;;;;5046838;28;20075;-73
2021/07/06 02:25:05;;;;;;;2.88;2.33;;;17.60;99.90;;;;;;5047180;28;20033;-71
2021/07/06 02:27:31;;;;;;;3.10;2.33;;;17.60;99.90;;;;;;5046197;28;20036;-70
2021/07/06 02:29:57;;;;;;;4.00;2.15;;;17.60;99.90;;;;;;5047003;28;20033;-74
2021/07/06 02:32:22;;;;;;;8.63;2.55;;;17.70;99.90;;;;;;5046914;28;20032;-69
2021/07/06 02:34:48;;;;;;;2.70;2.17;;;17.70;99.90;;;;;;5061675;28;20038;-70
2021/07/06 02:37:13;;;;;;;5.30;2.83;;;17.70;99.90;;;;;;5046651;28;20053;-70
2021/07/06 02:39:39;;;;;;;3.45;2.30;;;17.70;99.90;;;;;;5061993;28;20025;-71
2021/07/06 02:42:05;;;;;;;4.00;2.00;;;17.70;99.90;;;;;;5046331;28;20026;-72
2021/07/06 02:44:30;;;;;;;2.08;1.88;;;17.70;99.90;;;;;;5046725;28;20108;-70
2021/07/06 02:46:56;;;;;;;2.85;1.98;;;17.60;99.90;;;;;;5046347;28;20065;-72
2021/07/06 02:49:21;;;;;;;2.80;2.10;;;17.60;99.90;;;;;;5046301;28;20064;-68
2021/07/06 02:51:47;;;;;;;4.95;2.83;;;17.60;99.90;;;;;;5046453;28;20064;-69
2021/07/06 02:54:12;;;;;;;2.15;1.65;;;17.50;99.90;;;;;;5045785;28;20116;-71
2021/07/06 02:56:38;;;;;;;4.07;2.30;;;17.40;99.90;;;;;;5046233;28;20111;-70
2021/07/06 02:59:03;;;;;;;4.75;2.28;;;17.50;99.90;;;;;;5046388;28;20382;-69
2021/07/06 03:01:32;;;;;;;5.60;2.65;;;17.50;99.90;;;;;;5046148;28;20085;-69
2021/07/06 03:03:58;;;;;;;3.35;2.08;;;17.50;99.90;;;;;;5046504;28;20048;-71
2021/07/06 03:06:27;;;;;;;3.72;1.80;;;17.40;99.90;;;;;;5046232;28;20049;-69
2021/07/06 03:08:55;;;;;;;3.55;2.60;;;17.50;99.90;;;;;;5060794;28;20030;-71
2021/07/06 03:11:21;;;;;;;2.67;1.60;;;17.50;99.90;;;;;;5046083;28;20029;-69
2021/07/06 03:13:47;;;;;;;3.10;2.42;;;17.50;99.90;;;;;;5045829;28;20021;-70
2021/07/06 03:16:12;;;;;;;3.33;1.70;;;17.50;99.90;;;;;;5045509;28;20034;-71
2021/07/06 03:18:38;;;;;;;4.03;2.45;;;17.50;99.90;;;;;;5045963;28;20037;-70
2021/07/06 03:21:03;;;;;;;5.47;2.20;;;17.50;99.90;;;;;;5045851;28;20033;-70
2021/07/06 03:23:29;;;;;;;4.03;2.03;;;17.60;99.90;;;;;;5045710;28;20466;-70
2021/07/06 03:25:56;;;;;;;3.22;2.45;;;17.50;99.90;;;;;;5045858;28;20049;-69
2021/07/06 03:28:21;;;;;;;3.75;2.10;;;17.60;99.90;;;;;;5045448;28;20033;-70
2021/07/06 03:30:47;;;;;;;2.78;1.95;;;17.60;99.90;;;;;;5045435;28;20055;-70
2021/07/06 03:33:12;;;;;;;2.22;1.83;;;17.60;99.90;;;;;;5045474;28;20060;-70
2021/07/06 03:35:38;;;;;;;3.13;2.15;;;17.60;99.90;;;;;;5045283;28;20033;-69
2021/07/06 03:38:05;;;;;;;3.08;2.00;;;17.60;99.90;;;;;;5044847;28;20071;-70
2021/07/06 03:40:33;;;;;;;8.73;2.25;;;17.60;99.90;;;;;;5045694;28;20083;-70
2021/07/06 03:42:59;;;;;;;2.17;1.70;;;17.60;99.90;;;;;;5045415;28;20025;-70
2021/07/06 03:45:25;;;;;;;4.40;2.40;;;17.60;99.90;;;;;;5045300;28;20067;-70
2021/07/06 03:47:52;;;;;;;4.72;2.60;;;17.60;99.90;;;;;;5045316;28;20045;-70
2021/07/06 03:50:23;;;;;;;3.67;2.25;;;17.60;99.90;;;;;;5045062;28;20419;-71
2021/07/06 03:52:51;;;;;;;3.85;2.03;;;17.60;99.90;;;;;;5045297;28;20112;-70
2021/07/06 03:55:17;;;;;;;4.05;2.05;;;17.60;99.90;;;;;;5044641;28;20053;-70
2021/07/06 03:57:44;;;;;;;4.38;2.38;;;17.60;99.90;;;;;;5045100;28;20033;-70
2021/07/06 04:00:13;;;;;;;3.75;2.22;;;17.60;99.90;;;;;;5060276;28;20029;-71
2021/07/06 04:02:39;;;;;;;2.65;1.95;;;17.60;99.90;;;;;;5045096;28;20021;-69
2021/07/06 04:05:07;;;;;;;2.97;2.08;;;17.60;99.90;;;;;;5043598;28;20042;-68
2021/07/06 04:07:33;;;;;;;3.30;1.90;;;17.60;99.90;;;;;;5045225;28;20029;-70
2021/07/06 04:09:59;;;;;;;3.88;2.38;;;17.60;99.90;;;;;;5045116;28;20060;-71
2021/07/06 04:12:25;;;;;;;7.30;2.28;;;17.60;99.90;;;;;;5044771;28;20042;-70
2021/07/06 04:14:51;;;;;;;2.60;2.17;;;17.60;99.90;;;;;;5044951;28;20026;-71
2021/07/06 04:17:17;;;;;;;2.55;1.90;;;17.60;99.90;;;;;;5044989;28;20108;-69
2021/07/06 04:19:42;;;;;;;3.83;2.28;;;17.60;99.90;;;;;;5044471;28;20033;-70
2021/07/06 04:22:08;;;;;;;3.55;2.10;;;17.70;99.90;;;;;;5044702;28;20025;-69
2021/07/06 04:24:34;;;;;;;2.67;1.67;;;17.70;99.90;;;;;;5044551;28;20056;-71
2021/07/06 04:27:01;;;;;;;4.38;2.65;;;17.70;99.90;;;;;;5044848;28;20036;-70
2021/07/06 04:29:27;;;;;;;6.85;2.38;;;17.70;99.90;;;;;;5044865;28;20029;-70
2021/07/06 04:31:53;;;;;;;5.88;2.10;;;17.70;99.90;;;;;;5044380;28;20029;-69
2021/07/06 04:34:20;;;;;;;2.70;1.80;;;17.70;99.90;;;;;;5044625;28;20749;-69
2021/07/06 04:36:46;;;;;;;3.53;2.20;;;17.80;99.90;;;;;;5044718;28;20037;-70
2021/07/06 04:39:11;;;;;;;5.65;2.05;;;17.80;99.90;;;;;;5044285;28;20033;-70
2021/07/06 04:41:37;;;;;;;3.33;2.33;;;17.80;99.90;;;;;;5044846;28;20025;-72
2021/07/06 04:44:03;;;;;;;3.10;2.00;;;17.80;99.90;;;;;;5043177;28;20033;-70
2021/07/06 04:46:28;;;;;;;4.57;2.33;;;17.90;99.90;;;;;;5044317;28;20046;-71
2021/07/06 04:48:55;;;;;;;2.88;1.80;;;17.90;99.90;;;;;;5044810;28;20087;-71
2021/07/06 04:51:20;;;;;;;3.92;2.33;;;17.90;99.90;;;;;;5059456;28;20033;-72
2021/07/06 04:53:46;;;;;;;14.32;1.98;;;17.90;99.90;;;;;;5043850;28;20052;-73
2021/07/06 04:56:12;;;;;;;4.22;2.33;;;17.90;99.90;;;;;;5043720;28;20069;-70
2021/07/06 04:58:38;;;;;;;8.77;2.28;;;18.00;99.90;;;;;;5044278;28;20040;-72
2021/07/06 05:01:05;;;;;;;3.85;2.05;;;18.00;99.90;;;;;;5044255;28;20055;-71
2021/07/06 05:03:34;;;;;;;4.35;2.28;;;18.10;99.90;;;;;;5043209;28;20029;-70
2021/07/06 05:06:01;;;;;;;4.30;2.15;;;18.10;99.90;;;;;;5044359;28;20033;-71
2021/07/06 05:08:36;;;;;;;2.90;2.15;;;18.10;99.90;;;;;;5043795;28;20025;-70
2021/07/06 05:11:03;;;;;;;2.20;1.42;;;18.10;99.90;;;;;;5044339;28;20085;-71
2021/07/06 05:13:29;;;;;;;4.97;2.20;;;18.20;99.90;;;;;;5043973;28;20025;-73
2021/07/06 05:15:55;;;;;;;3.83;2.45;;;18.20;99.90;;;;;;5044001;28;20072;-71
2021/07/06 05:18:20;;;;;;;2.10;1.90;;;18.20;99.90;;;;;;5043716;28;20037;-70
2021/07/06 05:20:46;;;;;;;2.97;2.03;;;18.20;99.90;;;;;;5043869;28;20037;-71
2021/07/06 05:23:12;;;;;;;2.33;1.67;;;18.30;99.90;;;;;;5043824;28;20044;-72
2021/07/06 05:25:37;;;;;;;2.33;1.63;;;18.40;99.90;;;;;;5044082;28;20041;-71
2021/07/06 05:28:03;;;;;;;4.28;1.55;;;18.30;99.90;;;;;;5043869;28;20482;-73
2021/07/06 05:30:29;;;;;;;2.17;1.60;;;18.40;99.90;;;;;;5043838;28;20024;-72
2021/07/06 05:32:55;;;;;;;2.80;1.60;;;18.50;99.90;;;;;;5044139;28;20029;-70
2021/07/06 05:35:21;;;;;;;4.28;1.40;;;18.50;99.90;;;;;;5043708;28;20049;-71
2021/07/06 05:37:47;;;;;;;5.20;1.88;;;18.60;99.90;;;;;;5043967;28;20025;-71
2021/07/06 05:40:13;;;;;;;5.22;1.98;;;18.60;99.90;;;;;;5043905;28;20025;-71
2021/07/06 05:42:40;;;;;;;3.60;1.70;;;18.60;99.90;;;;;;5043281;28;20028;-72
2021/07/06 05:45:07;;;;;;;1.67;1.05;;;18.60;99.90;;;;;;5043531;28;20030;-73
2021/07/06 05:47:35;;;;;;;3.75;1.70;;;18.60;99.90;;;;;;5043964;28;20030;-72
2021/07/06 05:50:13;;;;;;;14.75;2.03;;;18.60;99.90;;;;;;5043402;28;20151;-69
2021/07/06 05:52:39;;;;;;;3.42;1.90;;;18.60;99.90;;;;;;5042375;28;20401;-72
2021/07/06 05:55:06;;;;;;;1.55;1.30;;;18.60;99.90;;;;;;5042130;28;20113;-72
2021/07/06 05:57:32;;;;;;;2.70;1.60;;;18.60;99.90;;;;;;5043619;28;20041;-72
2021/07/06 05:59:59;;;;;;;2.20;1.45;;;18.70;99.90;;;;;;5042594;28;20022;-70
2021/07/06 06:02:26;;;;;;;1.70;1.23;;;18.70;99.90;;;;;;5045894;28;20029;-69
2021/07/06 06:04:51;;;;;;;1.42;0.75;;;18.80;99.90;;;;;;5047099;28;20030;-71
2021/07/06 06:07:17;;;;;;;8.40;1.17;;;18.90;99.90;;;;;;5047359;28;20037;-70
2021/07/06 06:09:43;;;;;;;2.42;1.52;;;19.00;99.90;;;;;;5046797;28;20024;-69
2021/07/06 06:12:09;;;;;;;2.13;1.30;;;19.10;99.90;;;;;;5046823;28;20059;-70
2021/07/06 06:14:39;;;;;;;2.78;1.20;;;19.20;99.90;;;;;;5062355;28;20049;-69
2021/07/06 06:17:05;;;;;;;2.75;1.10;;;19.30;99.90;;;;;;5047101;28;20037;-71
2021/07/06 06:19:31;;;;;;;1.30;1.08;;;19.40;99.90;;;;;;5047072;28;20029;-70
2021/07/06 06:21:57;;;;;;;1.48;1.08;;;19.50;99.90;;;;;;5047075;28;20104;-72
2021/07/06 06:24:23;;;;;;;3.35;1.20;;;19.50;99.90;;;;;;5046786;28;20061;-71
2021/07/06 06:26:49;;;;;;;1.05;0.82;;;19.60;99.90;;;;;;5046779;28;20467;-71
2021/07/06 06:29:18;;;;;;;1.65;1.02;;;19.60;99.90;;;;;;5045261;28;20108;-70
2021/07/06 06:31:45;;;;;;;2.38;1.58;;;19.60;99.90;;;;;;5046093;28;20466;-71
2021/07/06 06:34:11;;;;;;;2.30;1.25;;;19.70;99.90;;;;;;5046088;28;20029;-71
2021/07/06 06:36:36;;;;;;;3.97;1.65;;;19.70;99.90;;;;;;5046470;28;20063;-71
2021/07/06 06:39:04;;;;;;;1.70;0.98;;;19.80;99.90;;;;;;5045852;28;20025;-70
2021/07/06 06:41:30;;;;;;;1.90;0.68;;;19.80;99.90;;;;;;5046494;28;20022;-71
2021/07/06 06:43:56;;;;;;;1.20;1.10;;;19.90;99.90;;;;;;5046388;28;20021;-71
2021/07/06 06:46:21;;;;;;;3.28;0.80;;;20.00;99.90;;;;;;5045423;28;20045;-69
2021/07/06 06:48:48;;;;;;;2.25;0.85;;;20.00;99.90;;;;;;5045999;28;20025;-70
2021/07/06 06:51:14;;;;;;;8.02;0.98;;;20.10;99.90;;;;;;5044662;28;20037;-70
2021/07/06 06:53:40;;;;;;;0.80;0.60;;;20.30;99.90;;;;;;5031583;28;20029;-71
2021/07/06 06:56:07;;;;;;;4.93;0.90;;;20.40;99.90;;;;;;5026370;28;20042;-70
2021/07/06 06:58:33;;;;;;;1.13;0.68;;;20.40;99.90;;;;;;5026395;28;20034;-75
2021/07/06 07:00:58;;;;;;;1.02;0.85;;;20.50;99.90;;;;;;5026294;28;20054;-71
2021/07/06 07:03:24;;;;;;;1.00;0.80;;;20.60;99.90;;;;;;5026515;28;20030;-69
2021/07/06 07:05:50;;;;;;;1.00;0.70;;;20.70;99.90;;;;;;5025811;28;20030;-71
2021/07/06 07:08:16;;;;;;;1.05;0.68;;;20.70;99.90;;;;;;5025682;28;20085;-71
2021/07/06 07:10:42;;;;;;;3.60;1.38;;;20.70;99.90;;;;;;5026524;28;20034;-71
2021/07/06 07:13:08;;;;;;;2.00;0.95;;;20.70;99.90;;;;;;5023727;28;20037;-71
2021/07/06 07:15:35;;;;;;;5.07;1.50;;;20.70;99.90;;;;;;5042793;28;20030;-71
2021/07/06 07:18:01;;;;;;;1.98;0.95;;;20.70;99.90;;;;;;5046261;28;20026;-70
2021/07/06 07:20:26;;;;;;;1.38;0.98;;;20.70;99.90;;;;;;5044988;28;20044;-70
2021/07/06 07:22:52;;;;;;;1.50;0.95;;;20.80;99.90;;;;;;5045548;28;20071;-70
2021/07/06 07:25:18;;;;;;;0.40;0.40;;;20.80;99.90;;;;;;5045041;28;20128;-70
2021/07/06 07:27:44;;;;;;;0.82;0.55;;;20.80;99.90;;;;;;5045222;28;20021;-70
2021/07/06 07:30:15;;;;;;;1.63;0.70;;;20.80;99.90;;;;;;5044228;28;20053;-72
2021/07/06 07:32:41;;;;;;;0.77;0.77;;;20.70;99.90;;;;;;5045093;28;20093;-71
2021/07/06 07:35:08;;;;;;;2.00;0.82;;;20.70;99.90;;;;;;5042759;28;20025;-71
2021/07/06 07:37:35;;;;;;;2.05;1.10;;;20.60;99.90;;;;;;5048051;28;20032;-72
2021/07/06 07:40:03;;;;;;;3.80;0.93;;;20.60;99.90;;;;;;5043879;28;20036;-70
2021/07/06 07:42:29;;;;;;;3.15;1.83;;;20.50;99.90;;;;;;5045269;28;20021;-69
2021/07/06 07:44:54;;;;;;;1.88;0.85;;;20.40;99.90;;;;;;5045261;28;20025;-70
2021/07/06 07:47:20;;;;;;;2.90;1.10;;;20.30;99.90;;;;;;5043646;28;20021;-68
2021/07/06 07:49:45;;;;;;;0.77;0.70;;;20.20;99.90;;;;;;5045083;28;20029;-66
2021/07/06 07:52:20;;;;;;;1.20;0.80;;;20.10;99.90;;;;;;5044418;28;20057;-73
2021/07/06 07:54:47;;;;;;;1.55;1.27;;;20.00;99.90;;;;;;5042901;28;20053;-68
2021/07/06 07:57:23;;;;;;;3.58;1.90;;;19.90;99.90;;;;;;5044663;28;20037;-68
2021/07/06 07:59:52;;;;;;;1.75;1.00;;;19.90;99.90;;;;;;5045094;28;20026;-68
2021/07/06 08:02:18;;;;;;;1.48;1.10;;;19.90;99.90;;;;;;5044700;28;20030;-69
2021/07/06 08:04:43;;;;;;;1.45;0.90;;;20.00;99.90;;;;;;5044866;28;20036;-67
2021/07/06 08:07:10;;;;;;;1.80;0.98;;;20.00;99.90;;;;;;5044745;28;20084;-68
2021/07/06 08:09:36;;;;;;;3.17;1.20;;;20.10;99.90;;;;;;5044724;28;20089;-68
2021/07/06 08:12:03;;;;;;;1.60;1.20;;;20.20;99.90;;;;;;5044966;28;20038;-68
2021/07/06 08:14:29;;;;;;;1.95;1.00;;;20.30;99.90;;;;;;5044887;28;20385;-70
2021/07/06 08:16:57;;;;;;;6.43;1.40;;;20.40;99.90;;;;;;5044623;28;20055;-71
2021/07/06 08:19:23;;;;;;;1.60;0.82;;;20.60;99.90;;;;;;5044879;28;20021;-68
2021/07/06 08:21:49;;;;;;;2.10;1.15;;;20.90;99.90;;;;;;5044112;28;20031;-70
2021/07/06 08:24:15;;;;;;;1.95;1.25;;;21.10;99.90;;;;;;5042569;28;20060;-70
2021/07/06 08:26:40;;;;;;;2.15;1.10;;;21.30;99.90;;;;;;5042987;28;20034;-71
2021/07/06 08:29:06;;;;;;;3.50;1.08;;;21.40;99.90;;;;;;5044644;28;20025;-71
2021/07/06 08:31:32;;;;;;;1.52;0.90;;;21.50;99.90;;;;;;5044581;28;20036;-72
2021/07/06 08:33:58;;;;;;;2.25;1.25;;;21.70;99.90;;;;;;5043641;28;20470;-70
2021/07/06 08:36:24;;;;;;;2.00;1.13;;;21.80;99.90;;;;;;5043137;28;20029;-70
2021/07/06 08:38:53;;;;;;;4.18;1.35;;;21.90;99.90;;;;;;5044535;28;20021;-68
2021/07/06 08:41:19;;;;;;;1.80;0.90;;;21.80;99.90;;;;;;5043136;28;20037;-68
2021/07/06 08:43:44;;;;;;;1.15;0.75;;;21.90;99.90;;;;;;5043942;28;20030;-72
2021/07/06 08:46:18;;;;;;;0.90;0.60;;;21.80;99.90;;;;;;5044086;28;20478;-71
2021/07/06 08:48:47;;;;;;;1.52;0.80;;;21.90;99.90;;;;;;5044039;28;20030;-71
2021/07/06 08:51:18;;;;;;;1.35;0.57;;;21.90;99.90;;;;;;5043465;28;20037;-70
2021/07/06 08:53:43;;;;;;;1.67;0.82;;;21.90;99.90;;;;;;5042991;28;20085;-71
2021/07/06 16:12:54;;;;;;;0.90;0.30;;;27.90;99.90;;;;;;5080968;28;20395;-69
2021/07/06 16:15:22;;;;;;;1.10;0.38;;;26.60;99.90;;;;;;5081458;28;20028;-71
2021/07/06 16:17:55;;;;;;;1.67;0.35;;;26.50;99.90;;;;;;5081313;28;20032;-72
2021/07/06 16:20:25;;;;;;;0.50;0.30;;;26.40;99.90;;;;;;5081116;28;20035;-74
2021/07/06 16:22:52;;;;;;;0.13;0.13;;;26.30;99.90;;;;;;5081098;28;20032;-71
2021/07/06 16:25:18;;;;;;;0.30;0.30;;;26.00;99.90;;;;;;5080793;28;20039;-70
2021/07/06 16:27:45;;;;;;;0.40;0.20;;;25.80;99.90;;;;;;5080924;28;20029;-74
2021/07/06 16:30:12;;;;;;;0.40;0.15;;;25.60;99.90;;;;;;5081163;28;20390;-72
2021/07/06 16:32:38;;;;;;;0.75;0.40;;;25.40;99.90;;;;;;5079959;28;20029;-71
2021/07/06 16:35:04;;;;;;;0.40;0.30;;;25.40;99.90;;;;;;5081387;28;20051;-71
2021/07/06 16:37:30;;;;;;;0.80;0.55;;;25.60;99.90;;;;;;5081541;28;20037;-71
2021/07/06 16:40:00;;;;;;;0.65;0.32;;;25.60;99.90;;;;;;5081281;28;20021;-70
2021/07/06 16:42:27;;;;;;;0.22;0.20;;;25.50;99.90;;;;;;5081159;28;20027;-72
2021/07/06 16:44:53;;;;;;;1.85;0.50;;;25.40;99.90;;;;;;5081013;28;20078;-72
2021/07/06 16:47:18;;;;;;;0.95;0.40;;;25.20;99.90;;;;;;5079663;28;20025;-71
2021/07/06 16:49:44;;;;;;;0.40;0.40;;;25.00;99.90;;;;;;5081041;28;20024;-74
2021/07/06 17:58:47;;;;;;;0.45;0.38;;;25.40;99.90;;;;;;4946862;29;20127;-75
2021/07/06 18:01:18;;;;;;;0.65;0.28;;;25.10;99.90;;;;;;4955261;29;20043;-72
2021/07/06 18:03:44;;;;;;;2.25;0.57;;;24.80;99.90;;;;;;4965831;29;20046;-73
2021/07/06 18:06:10;;;;;;;3.38;0.47;;;24.60;99.90;;;;;;4965515;29;20034;-73
2021/07/06 18:08:38;;;;;;;0.63;0.47;;;24.30;99.90;;;;;;4965834;29;20027;-72
2021/07/06 18:11:08;;;;;;;0.45;0.35;;;24.10;99.90;;;;;;5022645;28;20046;-76
2021/07/06 18:13:34;;;;;;;2.78;0.50;;;24.00;99.90;;;;;;5026450;28;20021;-69
2021/07/06 18:16:02;;;;;;;3.70;1.00;;;23.90;99.90;;;;;;5025896;28;20034;-74
2021/07/06 18:18:28;;;;;;;1.35;0.68;;;23.70;99.90;;;;;;5023393;28;20483;-71
2021/07/06 18:20:56;;;;;;;3.08;0.95;;;23.70;99.90;;;;;;5030732;28;20030;-69
2021/07/06 18:23:23;;;;;;;7.53;0.73;;;23.60;99.90;;;;;;5039280;28;20028;-75
2021/07/06 18:25:49;;;;;;;0.70;0.50;;;23.50;99.90;;;;;;5024638;28;20030;-71
2021/07/06 18:28:16;;;;;;;7.80;0.95;;;23.40;99.90;;;;;;5023941;28;20021;-70
2021/07/06 18:30:42;;;;;;;9.30;0.63;;;23.30;99.90;;;;;;5025775;28;20443;-70
2021/07/06 18:33:08;;;;;;;26.80;1.30;;;23.30;99.90;;;;;;5025357;28;20030;-70
2021/07/06 18:35:34;;;;;;;1.33;0.75;;;23.30;99.90;;;;;;5025950;28;20022;-71
2021/07/06 18:38:02;;;;;;;1.15;0.47;;;23.20;99.90;;;;;;5025958;28;20045;-71
2021/07/06 18:40:31;;;;;;;2.40;0.95;;;23.20;99.90;;;;;;5024582;28;20044;-70
2021/07/06 18:42:58;;;;;;;11.48;0.98;;;23.10;99.90;;;;;;5025818;28;20026;-70
2021/07/06 18:45:23;;;;;;;2.47;0.60;;;23.10;99.90;;;;;;5025661;28;20049;-72
2021/07/06 18:47:49;;;;;;;0.73;0.32;;;23.00;99.90;;;;;;5024294;28;20030;-69
2021/07/06 18:50:15;;;;;;;1.27;0.47;;;23.00;99.90;;;;;;5025525;28;20022;-71
2021/07/06 18:52:41;;;;;;;2.20;0.60;;;23.00;99.90;;;;;;5024247;28;20036;-73
2021/07/06 18:55:11;;;;;;;4.47;0.98;;;22.90;99.90;;;;;;5025391;28;20026;-70
2021/07/06 18:57:38;;;;;;;1.85;0.88;;;22.90;99.90;;;;;;5025249;28;20045;-71
2021/07/06 19:00:08;;;;;;;4.05;0.70;;;22.90;99.90;;;;;;5032244;28;20030;-70
2021/07/06 19:02:44;;;;;;;0.73;0.52;;;22.70;99.90;;;;;;5030268;28;20089;-71
2021/07/06 19:05:13;;;;;;;6.28;0.90;;;22.70;99.90;;;;;;5044027;28;20450;-70
2021/07/06 19:07:42;;;;;;;1.00;0.55;;;22.60;99.90;;;;;;5045025;28;20387;-71
2021/07/06 19:10:09;;;;;;;1.67;0.85;;;22.50;99.90;;;;;;5045210;28;20033;-72
2021/07/06 19:12:35;;;;;;;1.33;0.60;;;22.50;99.90;;;;;;5045008;28;20069;-72
2021/07/06 19:15:00;;;;;;;0.52;0.52;;;22.40;99.90;;;;;;5045151;28;20033;-71
2021/07/06 19:17:26;;;;;;;1.52;0.70;;;22.30;99.90;;;;;;5034882;28;20038;-68
2021/07/06 19:19:52;;;;;;;1.75;0.70;;;22.30;99.90;;;;;;5034309;28;20028;-70
2021/07/06 19:22:17;;;;;;;2.10;0.60;;;22.20;99.90;;;;;;5033954;28;20380;-70
2021/07/06 19:24:44;;;;;;;1.67;0.73;;;22.20;99.90;;;;;;5025066;28;20463;-70
2021/07/06 19:27:14;;;;;;;2.10;0.68;;;22.10;99.90;;;;;;5024618;28;20032;-74
2021/07/06 19:32:31;;;;;;;6.22;0.63;;;21.90;99.90;;;;;;5025263;28;20038;-71
2021/07/06 19:34:57;;;;;;;2.38;0.63;;;21.80;99.90;;;;;;5025003;28;20566;-69
2021/07/06 19:37:24;;;;;;;3.42;0.45;;;21.80;99.90;;;;;;5024723;28;20045;-71
2021/07/06 19:39:52;;;;;;;1.98;0.73;;;21.80;99.90;;;;;;5039136;28;20029;-70
2021/07/06 19:42:18;;;;;;;0.55;0.22;;;21.70;99.90;;;;;;5044024;28;20100;-71
2021/07/06 19:44:44;;;;;;;0.45;0.35;;;21.60;99.90;;;;;;5029140;28;20021;-73
2021/07/06 19:47:10;;;;;;;2.60;0.55;;;21.50;99.90;;;;;;5024581;28;20061;-71
2021/07/06 19:49:36;;;;;;;3.50;1.02;;;21.50;99.90;;;;;;5024652;28;20026;-73
2021/07/06 19:52:04;;;;;;;2.58;0.60;;;21.40;99.90;;;;;;5024451;28;20022;-72
2021/07/06 19:54:31;;;;;;;5.53;0.90;;;21.40;99.90;;;;;;5021677;28;20364;-70
2021/07/06 19:56:56;;;;;;;0.80;0.68;;;21.40;99.90;;;;;;5022672;28;20049;-69
2021/07/06 19:59:22;;;;;;;3.10;0.90;;;21.30;99.90;;;;;;5023384;28;20037;-70
2021/07/06 20:01:48;;;;;;;1.85;1.05;;;21.30;99.90;;;;;;5023503;28;20030;-76
2021/07/06 20:04:15;;;;;;;0.85;0.63;;;21.30;99.90;;;;;;5023358;28;20025;-71
2021/07/06 20:06:42;;;;;;;1.45;0.73;;;21.10;99.90;;;;;;5023741;28;20024;-70
2021/07/06 20:09:08;;;;;;;2.60;0.80;;;21.10;99.90;;;;;;5030426;28;20017;-70
2021/07/06 20:11:34;;;;;;;8.20;0.88;;;21.00;99.90;;;;;;5031613;28;20073;-74
2021/07/06 20:14:02;;;;;;;2.80;0.80;;;21.00;99.90;;;;;;5029584;28;20030;-70
2021/07/06 20:16:29;;;;;;;5.03;0.95;;;21.00;99.90;;;;;;5021562;28;20399;-69
2021/07/06 20:18:54;;;;;;;0.60;0.50;;;20.90;99.90;;;;;;5022951;28;21014;-68
2021/07/06 20:21:20;;;;;;;2.08;0.77;;;20.80;99.90;;;;;;5023120;28;20026;-69
2021/07/06 20:23:46;;;;;;;1.58;0.73;;;20.80;99.90;;;;;;5031280;28;20403;-71
2021/07/06 20:26:11;;;;;;;1.80;0.45;;;20.80;99.90;;;;;;5043426;28;20033;-71
2021/07/06 20:28:37;;;;;;;1.80;0.80;;;20.70;99.90;;;;;;5043502;28;20037;-74
2021/07/06 20:31:03;;;;;;;6.18;0.73;;;20.70;99.90;;;;;;5043875;28;20383;-71
2021/07/06 20:33:31;;;;;;;0.93;0.52;;;20.70;99.90;;;;;;5043882;28;20045;-70
2021/07/06 20:35:57;;;;;;;1.60;0.77;;;20.70;99.90;;;;;;5043119;28;20030;-70
2021/07/06 20:38:23;;;;;;;6.68;0.75;;;20.60;99.90;;;;;;5041977;28;20033;-73
2021/07/06 20:40:49;;;;;;;1.45;0.57;;;20.60;99.90;;;;;;5043947;28;20071;-72
2021/07/06 20:43:14;;;;;;;0.35;0.30;;;20.60;99.90;;;;;;5034310;28;20029;-68
2021/07/06 20:45:40;;;;;;;0.63;0.38;;;20.50;99.90;;;;;;5047573;28;20029;-71
2021/07/06 20:48:06;;;;;;;1.42;0.95;;;20.50;99.90;;;;;;5047884;28;20034;-70
2021/07/06 20:50:33;;;;;;;1.38;0.40;;;20.40;99.90;;;;;;5048012;28;20056;-69
2021/07/06 20:53:03;;;;;;;0.63;0.25;;;20.40;99.90;;;;;;5047725;28;20033;-69
2021/07/06 20:55:31;;;;;;;2.95;1.20;;;20.30;99.90;;;;;;5039819;28;21081;-69
2021/07/06 20:57:58;;;;;;;2.20;0.68;;;20.30;99.90;;;;;;5038694;28;20053;-71
2021/07/06 21:00:25;;;;;;;3.83;0.80;;;20.20;99.90;;;;;;5032858;28;20021;-70
2021/07/06 21:02:51;;;;;;;5.53;0.40;;;20.10;99.90;;;;;;5032509;28;20025;-74
2021/07/06 21:05:17;;;;;;;0.45;0.40;;;20.10;99.90;;;;;;5027655;28;20034;-72
2021/07/06 21:07:52;;;;;;;1.30;0.55;;;20.00;99.90;;;;;;5026072;28;20070;-69
2021/07/06 21:10:19;;;;;;;2.15;0.68;;;19.90;99.90;;;;;;5027660;28;20046;-67